Aérodrome :
LOGIN :

S'inscrire | Disclaimer

   EN    FR    IT 

 










Légende :    VFR   VFR Marginal   IFR   IFR Intensif   IFR Très Intensif
Visi : 
Plafond : 
>= 8 km
>= 3000ft
5 à 8 km
1000 à 3000 ft
1500m à 5 km
500 à 1000 ft
800 à 1500m
200 à 500 ft
< 800m
< 200 ft
Symboles :   Orages  Brouillard  Fortes neiges  Fortes précipitations  Vent > 20 kt
SIGMETs :   Divers  Orages  Givrage  Turbulence  Onde Orograph.  Cendres Volcan.






- Altitude de l'aérodrome : 499 ft
- Code IATA : TLS


LFBO - Toulouse / Blagnac

DERNIER METAR :
  • 101200Z AUTO 14017KT 9999 BKN025 BKN140 BKN170 16/10 Q1013 TEMPO 14015G25KT

METARs EXPIRÉS :
  • 101130Z AUTO 14016KT 110V170 9999 SCT024 16/10 Q1013 BECMG 14015G25KT
  • 101100Z AUTO 14018KT 9999 SCT025 SCT240 16/11 Q1014 BECMG 14015G25KT
  • 101030Z AUTO 14018KT 9999 BKN023 16/10 Q1014 BECMG 14015G25KT
  • 101000Z AUTO 13018KT 9999 BKN022 BKN240 15/10 Q1014 BECMG 14015G25KT
  • 100930Z AUTO 13015KT 9999 BKN020 BKN100 15/10 Q1014 BECMG 14015G25KT
  • 100900Z AUTO 13014KT 9999 SCT019 BKN100 15/10 Q1014 BECMG 14015G25KT

TAF TAF LFBO
Valide du 10 à 12h jusqu'au 11 à 18h UTC


101100Z 1012/1118 14012KT 9999 SCT025
TEMPO 1012/1018 14015G25KT
BECMG 1018/1020 BKN012
TEMPO 1021/1107 OVC007
PROB30 1101/1106 4000 BR OVC004
BECMG 1109/1111 28012KT BKN023 FEW030TCU
TEMPO 1110/1118 4000 RA BKN013
ATIS : +33 5 62 74 66 36



MET'MAP, la Météo Aéronautique d'un coup d'oeil ! - Copyright ORBIFLY Décembre 2007 - Disclaimer

ORBIFLY MET'MAP TEAM :

Programmation & Développement : Alexandra Zaïnal
Sur une idée originale de : Baudouin d'Aumeries
Assistance à la programmation : Marc-Olivier Méhu
Soutien technique & logistique : Manuel Goepfert

Contact : metmap@orbifly.com




SOURCES & CREDITS :

   NOAA